x

Monterey - 27nm Wnw Of Monterey, Ca (46042) Wave Buoy

12:50am - Tue 26th Jul 2016 All times are PDT. -7 hours from GMT.

  • Sig Wave height 5.9ft
  • Swell Direction
  • Peak Period 8s
  • Average Period 7s
  • Wind
    11mph, 13mph gusts
  • Sea Temp 56°f
  • Air Temp 53°f
  • Sea Pressure 1013.2mb
  • Monterey - 27nm Wnw Of Monterey, Ca
  • Monterey - 27nm Wnw Of Monterey, Ca

More Historic Weather Station data

Upgrade to MSW Pro to gain access to the past 30 days of data for over 8000 Wavebouys and Weather Stations around the globe.

Join Pro

Comparision Forecast

View Surf forecast
   
Tue 07/26 12:50am 6ft 8s 7s 11 13 mph 1013.2mb 56f 53f
Mon 07/25 11:50pm 6ft 8s 7s 9 11 mph 1013.4mb 56f 53f
10:50pm 6ft 9s 7s 11 13 mph 1013.7mb 56f 53f
9:50pm 7ft 9s 7s 9 13 mph 1014.1mb 56f 53f
8:50pm 6.5ft 9s 7s 11 13 mph 1013.6mb 56f 54f
7:50pm 7ft 9s 7s 9 11 mph 1013.5mb 56f 54f
6:50pm 7ft 9s 7s 9 11 mph 1013.6mb 56f 55f
5:50pm 6ft 9s 7s 9 13 mph 1013.8mb 57f 56f
4:50pm 5.5ft 9s 7s 11 13 mph 1014.3mb 57f 56f
3:50pm 6ft 9s 7s 11 13 mph 1014.7mb 57f 57f
2:50pm 6ft 9s 7s 9 11 mph 1015mb 57f 56f
1:50pm 6ft 9s 7s 7 9 mph 1015.4mb 56f 56f
12:50pm 6.5ft 9s 7s 9 11 mph 1015.8mb 56f 56f
11:50am 6.5ft 9s 7s 9 11 mph 1015.9mb 56f 55f
10:50am 7.5ft 8s 7s 13 16 mph 1015.8mb 56f 55f
9:50am 8ft 8s 7s 11 16 mph 1015.7mb 56f 55f
8:50am 7ft 9s 7s 13 16 mph 1015.5mb 56f 55f
7:50am 8.5ft 9s 7s 13 18 mph 1015.3mb 56f 55f
6:50am 8ft 9s 7s 16 20 mph 1014.9mb 56f 55f
5:50am 8ft 8s 7s 18 22 mph 1014.3mb 56f 55f
4:50am 7ft 8s 6s 18 22 mph 1014.2mb 56f 55f
3:50am 7.5ft 9s 7s 18 20 mph 1014mb 56f 56f
2:50am 8ft 9s 7s 16 20 mph 1014.1mb 56f 56f
1:50am 7ft 9s 7s 16 20 mph 1014.1mb 56f 56f
12:50am 6.5ft 9s 6s 16 20 mph 1014.3mb 56f 56f
Sun 07/24 11:50pm 6ft 8s 6s 20 22 mph 1014.1mb 56f 56f
10:50pm 7ft 9s 6s 18 22 mph 1014.1mb 56f 57f
9:50pm 7ft 9s 6s 16 20 mph 1013.9mb 56f 56f
8:50pm 7ft 8s 6s 16 20 mph 1013.6mb 56f 56f
7:50pm 7.5ft 10s 6s 20 25 mph 1013.5mb 56f 55f
6:50pm 8ft 9s 6s 18 22 mph 1013.6mb 56f 56f
5:50pm 8ft 9s 7s 18 22 mph 1013.5mb 56f 56f
4:50pm 7.5ft 10s 6s 20 22 mph 1013.3mb 56f 56f
3:50pm 8.5ft 10s 7s 18 22 mph 1013.2mb 56f 56f
2:50pm 7.5ft 10s 6s 20 25 mph 1013.2mb 56f 56f
1:50pm 8ft 10s 6s 22 27 mph 1013.1mb 56f 56f
12:50pm 8ft 9s 6s 20 25 mph 1013.1mb 56f 55f
11:50am 8ft 10s 6s 22 27 mph 1013.1mb 56f 55f
10:50am 8.5ft 9s 7s 20 25 mph 1013mb 56f 55f
9:50am 7ft 9s 6s 18 22 mph 1012.7mb 56f 55f
8:50am 8.5ft 10s 7s 20 25 mph 1012.4mb 56f 55f
7:50am 9ft 9s 7s 20 22 mph 1012mb 56f 56f
6:50am 7.5ft 8s 6s 18 22 mph 1011.5mb 56f 56f
5:50am 8.5ft 9s 7s 20 22 mph 1010.9mb 56f 56f
4:50am 8.5ft 9s 7s 18 22 mph 1010.7mb 56f 56f
3:50am 8.5ft 8s 7s 18 22 mph 1010.6mb 56f 56f
2:50am 8.5ft 9s 7s 18 22 mph 1010.8mb 56f 56f
1:50am 8ft 8s 7s 18 20 mph 1011.4mb 56f 57f
12:50am 8ft 9s 7s 18 22 mph 1011.7mb 56f 57f
Sat 07/23 11:50pm 7.5ft 9s 6s 16 18 mph 1012.2mb 56f 57f
10:50pm 7.5ft 9s 6s 20 25 mph 1012mb 56f 57f
9:50pm 9ft 9s 7s 20 25 mph 1012.2mb 56f 57f
8:50pm 8.5ft 9s 6s 22 27 mph 1011.9mb 56f 57f
7:50pm 8.5ft 8s 6s 25 29 mph 1011.7mb 56f 57f
6:50pm 8.5ft 9s 6s 27 31 mph 1011.8mb 56f 58f
5:50pm 8ft 9s 6s 27 34 mph 1012.1mb 56f 58f
4:50pm 9ft 7s 6s 27 31 mph 1012.6mb 56f 57f
3:50pm 9ft 8s 6s 29 36 mph 1012.9mb 56f 56f
2:50pm 9ft 9s 6s 29 34 mph 1013.6mb 56f 56f
1:50pm 8.5ft 8s 6s 27 31 mph 1014.2mb 56f 56f
12:50pm 8ft 9s 6s 25 29 mph 1014.8mb 56f 56f
11:50am 7.5ft 8s 6s 22 29 mph 1015.5mb 56f 56f
10:50am 8ft 9s 6s 25 29 mph 1015.4mb 56f 56f
9:50am 8ft 8s 6s 22 25 mph 1015.8mb 56f 57f
8:50am 7.5ft 8s 6s 18 22 mph 1015.9mb 56f 57f
7:50am 7ft 8s 6s 18 20 mph 1015.8mb 56f 57f
6:50am 7ft 8s 6s 16 20 mph 1015.6mb 56f 57f
5:50am 6.5ft 9s 6s 20 22 mph 1015mb 56f 57f
4:50am 6.5ft 8s 6s 18 22 mph 1015.1mb 56f 57f
3:50am 7ft 8s 6s 16 20 mph 1015.5mb 56f 57f
2:50am 6.5ft 8s 6s 16 18 mph 1015.9mb 56f 57f
1:50am 6.5ft 8s 6s 18 20 mph 1016.2mb 56f 57f
12:50am 6.5ft 7s 6s 16 20 mph 1016.7mb 56f 57f
Fri 07/22 11:50pm 7ft 8s 6s 16 20 mph 1017mb 56f 58f
10:50pm 7ft 7s 6s 18 20 mph 1017.1mb 56f 58f
9:50pm 6ft 7s 6s 20 22 mph 1017mb 56f 58f
8:50pm 6ft 7s 5s 20 25 mph 1016.8mb 56f 58f
7:50pm 6ft 8s 5s 22 27 mph 1016.8mb 57f 58f
6:50pm 6ft 16s 5s 22 27 mph 1017.2mb 57f 58f
5:50pm 6.5ft 7s 6s 20 27 mph 1017.8mb 57f 58f
4:50pm 6.5ft 16s 6s 22 27 mph 1018mb 57f 57f
3:50pm 7ft 17s 6s 25 29 mph 1018.9mb 56f 57f
2:50pm 6ft 8s 6s 22 27 mph 1019.6mb 56f 56f
1:50pm 6ft 6s 5s 22 29 mph 1019.8mb 56f 56f
12:50pm 5.5ft 16s 5s 25 27 mph 1020.3mb 56f 56f
11:50am 5.5ft 17s 6s 22 25 mph 1020.5mb 56f 56f
10:50am 5ft 16s 5s 18 25 mph 1020.5mb 56f 56f
9:50am 5ft 6s 5s 18 22 mph 1020.3mb 56f 56f